Time;durP1;ratioP1;P1;durP2;ratioP2;P2;SDS_P1;SDS_P2;PMS_P1;PMS_P2;Temp;Humidity;BMP_temperature;BMP_pressure;BME280_temperature;BME280_humidity;BME280_pressure;Samples;Min_cycle;Max_cycle;Signal;HPM_P1;HPM_P2
2023/04/25 00:01:24;;;;;;;6.72;6.28;;;;;;;8.11;100.00;97965.34;4140736;28;20306;-48
2023/04/25 00:03:26;;;;;;;8.30;7.50;;;;;;;8.02;100.00;97958.66;4121099;28;20253;-49
2023/04/25 00:05:29;;;;;;;7.85;7.05;;;;;;;8.13;100.00;97960.47;4154677;28;20236;-48
2023/04/25 00:07:32;;;;;;;8.40;7.80;;;;;;;8.21;100.00;97960.09;4140336;28;20311;-48
2023/04/25 00:09:33;;;;;;;9.50;8.70;;;;;;;8.14;100.00;97951.22;4140199;28;20229;-49
2023/04/25 00:11:38;;;;;;;7.95;7.35;;;;;;;8.02;100.00;97958.66;4138306;28;20244;-48
2023/04/25 00:13:41;;;;;;;7.88;7.25;;;;;;;8.10;100.00;97956.34;4151841;28;20731;-48
2023/04/25 00:15:44;;;;;;;9.23;8.52;;;;;;;8.04;100.00;97948.34;4138008;28;20209;-48
2023/04/25 00:17:46;;;;;;;9.50;8.80;;;;;;;7.92;100.00;97953.88;4138142;28;20213;-49
2023/04/25 00:19:48;;;;;;;9.82;9.02;;;;;;;7.94;100.00;97953.59;4137683;28;20683;-49
2023/04/25 00:21:49;;;;;;;10.77;9.95;;;;;;;8.08;100.00;97946.78;4124966;28;20296;-49
2023/04/25 00:23:52;;;;;;;9.75;8.85;;;;;;;7.98;100.00;97949.31;4151855;28;20219;-50
2023/04/25 00:25:54;;;;;;;9.70;8.75;;;;;;;7.98;100.00;97952.06;4138421;28;20240;-50
2023/04/25 00:27:56;;;;;;;10.32;9.43;;;;;;;7.97;100.00;97955.84;4123963;28;20321;-49
2023/04/25 00:29:58;;;;;;;11.15;10.25;;;;;;;7.83;100.00;97949.09;4135999;28;20356;-49
2023/04/25 00:32:00;;;;;;;9.75;8.80;;;;;;;7.89;100.00;97946.19;4134584;28;20213;-49
2023/04/25 00:34:02;;;;;;;9.30;8.60;;;;;;;7.92;100.00;97953.03;4139392;28;20226;-48
2023/04/25 00:36:04;;;;;;;10.73;9.70;;;;;;;8.02;100.00;97947.78;4138649;28;20201;-49
2023/04/25 00:38:06;;;;;;;10.77;9.93;;;;;;;7.96;100.00;97948.75;4135685;28;20233;-49
2023/04/25 00:40:08;;;;;;;11.20;10.32;;;;;;;7.94;100.00;97945.44;4134438;28;21232;-49
2023/04/25 00:42:10;;;;;;;9.77;9.07;;;;;;;7.95;100.00;97947.13;4138746;28;20277;-50
2023/04/25 00:44:13;;;;;;;9.50;8.70;;;;;;;8.10;100.00;97939.19;4141474;28;21258;-49
2023/04/25 00:46:15;;;;;;;9.88;9.18;;;;;;;8.04;100.00;97940.16;4136632;28;20210;-49
2023/04/25 00:48:17;;;;;;;9.68;8.88;;;;;;;7.85;100.00;97936.03;4153220;28;20229;-50
2023/04/25 00:50:19;;;;;;;9.07;8.25;;;;;;;7.86;100.00;97932.22;4135749;28;20744;-49
2023/04/25 00:52:21;;;;;;;9.68;8.95;;;;;;;7.89;100.00;97937.19;4152641;28;20213;-49
2023/04/25 00:54:22;;;;;;;8.90;8.20;;;;;;;8.01;100.00;97932.50;4140058;28;20256;-48
2023/04/25 00:56:25;;;;;;;9.23;8.52;;;;;;;8.00;100.00;97928.09;4139080;28;20651;-49
2023/04/25 00:58:26;;;;;;;9.68;8.98;;;;;;;7.96;100.00;97932.41;4135679;28;20325;-50
2023/04/25 01:00:28;;;;;;;9.25;8.57;;;;;;;8.03;100.00;97939.31;4137658;28;20214;-49
2023/04/25 01:02:31;;;;;;;9.85;9.02;;;;;;;8.02;100.00;97936.88;4140279;28;20209;-49
2023/04/25 01:04:33;;;;;;;9.40;8.60;;;;;;;7.87;100.00;97932.00;4119575;28;20219;-50
2023/04/25 01:06:35;;;;;;;9.18;8.38;;;;;;;7.91;100.00;97935.03;4134091;28;20245;-49
2023/04/25 01:08:39;;;;;;;9.00;8.30;;;;;;;7.94;100.00;97937.25;4152732;28;20248;-49
2023/04/25 01:10:41;;;;;;;10.00;9.10;;;;;;;7.95;100.00;97933.50;4141429;28;20663;-49
2023/04/25 01:12:43;;;;;;;10.55;9.73;;;;;;;7.95;100.00;97933.50;4154111;28;20243;-49
2023/04/25 01:14:44;;;;;;;10.13;8.98;;;;;;;7.90;100.00;97927.97;4142789;28;20304;-49
2023/04/25 01:16:46;;;;;;;10.80;9.85;;;;;;;7.96;100.00;97929.69;4134891;28;20313;-48
2023/04/25 01:18:48;;;;;;;9.38;8.68;;;;;;;8.02;100.00;97934.16;4134231;28;20222;-48
2023/04/25 01:20:53;;;;;;;9.07;8.35;;;;;;;7.95;100.00;97936.22;4135968;28;20213;-48
2023/04/25 01:22:55;;;;;;;9.55;8.85;;;;;;;7.98;100.00;97935.72;4140620;28;20208;-49
2023/04/25 01:24:57;;;;;;;9.80;9.00;;;;;;;7.91;100.00;97935.03;4138591;28;20217;-49
2023/04/25 01:27:00;;;;;;;9.20;8.50;;;;;;;8.02;100.00;97936.88;4139699;28;20252;-49
2023/04/25 01:29:04;;;;;;;8.63;7.80;;;;;;;8.00;100.00;97936.28;4141377;28;20233;-51
2023/04/25 01:31:05;;;;;;;15.02;9.90;;;;;;;7.96;100.00;97927.78;4137124;28;20225;-49
2023/04/25 01:33:08;;;;;;;8.90;8.27;;;;;;;7.94;100.00;97937.25;4150988;28;20204;-49
2023/04/25 01:35:11;;;;;;;9.25;8.52;;;;;;;7.97;100.00;97934.06;4153108;28;20209;-48
2023/04/25 01:37:13;;;;;;;9.73;9.02;;;;;;;7.85;100.00;97933.31;4137241;28;20216;-48
2023/04/25 01:39:15;;;;;;;9.18;8.48;;;;;;;7.82;100.00;97936.53;4134409;28;20777;-49
2023/04/25 01:41:17;;;;;;;9.55;8.02;;;;;;;7.87;100.00;97929.28;4136913;28;20236;-48
2023/04/25 01:43:19;;;;;;;8.98;8.18;;;;;;;7.92;100.00;97931.25;4121435;28;20207;-49
2023/04/25 01:45:21;;;;;;;9.10;8.35;;;;;;;7.89;100.00;97937.19;4141119;28;20213;-48
2023/04/25 01:47:23;;;;;;;8.50;7.82;;;;;;;7.86;100.00;97943.13;4150266;28;20224;-49
2023/04/25 01:49:25;;;;;;;7.75;7.07;;;;;;;7.89;100.00;97939.94;4135263;28;20348;-49
2023/04/25 01:51:27;;;;;;;8.70;8.00;;;;;;;7.91;100.00;97935.03;4151178;28;20213;-50
2023/04/25 01:53:29;;;;;;;7.32;6.82;;;;;;;7.93;100.00;97938.34;4139073;28;20259;-49
2023/04/25 01:55:31;;;;;;;7.38;6.88;;;;;;;8.00;100.00;97939.84;4119235;28;20235;-49
2023/04/25 01:57:32;;;;;;;7.55;6.95;;;;;;;7.92;100.00;97947.59;4137089;28;20304;-49
2023/04/25 01:59:34;;;;;;;8.20;7.60;;;;;;;7.96;100.00;97933.22;4140440;28;20233;-49
2023/04/25 02:01:36;;;;;;;7.72;7.15;;;;;;;7.92;100.00;97923.06;4138880;28;20646;-50
2023/04/25 02:03:38;;;;;;;7.60;6.90;;;;;;;7.96;100.00;97922.31;4149269;28;20215;-48
2023/04/25 02:05:40;;;;;;;6.88;6.38;;;;;;;7.83;100.00;97928.09;4135686;28;20209;-49
2023/04/25 02:07:42;;;;;;;6.75;6.25;;;;;;;7.89;100.00;97932.56;4135920;28;20221;-49
2023/04/25 02:09:44;;;;;;;7.13;6.63;;;;;;;7.83;100.00;97921.84;4138544;28;20237;-49
2023/04/25 02:11:46;;;;;;;7.75;7.25;;;;;;;7.65;100.00;97922.91;4152653;28;20204;-51
2023/04/25 02:13:47;;;;;;;7.63;7.03;;;;;;;7.71;100.00;97929.25;4124282;28;21240;-50
2023/04/25 02:15:49;;;;;;;7.35;6.82;;;;;;;7.79;100.00;97917.94;4136732;28;20292;-49
2023/04/25 02:17:54;;;;;;;7.72;7.13;;;;;;;7.72;100.00;97930.91;4135878;28;20300;-49
2023/04/25 02:19:56;;;;;;;6.78;6.28;;;;;;;7.77;100.00;97920.94;4136298;28;20320;-49
2023/04/25 02:21:58;;;;;;;7.00;6.28;;;;;;;7.65;100.00;97911.19;4135901;28;21116;-50
2023/04/25 02:23:59;;;;;;;7.70;7.05;;;;;;;7.62;100.00;97919.84;4135939;28;20308;-50
2023/04/25 02:26:02;;;;;;;7.70;7.10;;;;;;;7.61;100.00;97918.22;4135374;28;20210;-51
2023/04/25 02:28:03;;;;;;;7.03;6.53;;;;;;;7.61;100.00;97919.03;4121387;28;20236;-50
2023/04/25 02:30:06;;;;;;;8.15;7.55;;;;;;;7.64;100.00;97917.69;4136596;28;20257;-49
2023/04/25 02:32:08;;;;;;;6.70;6.20;;;;;;;7.61;100.00;97915.50;4135504;28;20232;-51
2023/04/25 02:34:10;;;;;;;7.18;6.68;;;;;;;7.22;100.00;97919.13;4117356;28;20275;-49
2023/04/25 02:36:11;;;;;;;7.57;7.05;;;;;;;7.27;100.00;97916.47;4138744;28;20307;-49
2023/04/25 02:38:13;;;;;;;7.38;6.88;;;;;;;7.35;100.00;97927.00;4139456;28;20202;-50
2023/04/25 02:40:15;;;;;;;8.35;7.13;;;;;;;7.39;100.00;97919.97;4139873;28;20261;-50
2023/04/25 02:42:17;;;;;;;6.68;6.18;;;;;;;7.43;100.00;97918.41;4139049;28;20591;-50
2023/04/25 02:44:18;;;;;;;8.27;7.68;;;;;;;7.54;100.00;97917.50;4144564;28;20709;-49
2023/04/25 02:46:20;;;;;;;7.32;6.72;;;;;;;7.62;100.00;97915.22;4137525;28;20206;-51
2023/04/25 02:48:39;;;;;;;7.50;6.90;;;;;;;7.61;100.00;97908.13;4139132;28;20289;-49
2023/04/25 02:50:41;;;;;;;8.82;7.45;;;;;;;7.54;100.00;97918.34;4139876;28;20212;-50
2023/04/25 02:52:42;;;;;;;7.82;7.13;;;;;;;7.55;100.00;97919.19;4121800;28;20226;-50
2023/04/25 02:54:44;;;;;;;8.20;7.50;;;;;;;7.56;100.00;97920.84;4155167;28;20277;-51
2023/04/25 02:56:46;;;;;;;7.70;7.00;;;;;;;7.57;100.00;97911.59;4137161;28;20268;-49
2023/04/25 02:58:48;;;;;;;7.30;6.80;;;;;;;7.63;100.00;97916.06;4139253;28;20659;-51
2023/04/25 03:00:50;;;;;;;7.55;7.05;;;;;;;7.60;100.00;97913.81;4151575;28;20961;-50
2023/04/25 03:02:52;;;;;;;6.45;5.95;;;;;;;7.64;100.00;97917.69;4140624;28;20216;-49
2023/04/25 03:04:53;;;;;;;7.13;6.63;;;;;;;7.65;100.00;97913.91;4129416;28;20213;-50
2023/04/25 03:06:55;;;;;;;8.13;6.63;;;;;;;7.69;100.00;97920.53;4146523;28;20209;-49
2023/04/25 03:08:57;;;;;;;8.05;7.43;;;;;;;7.68;100.00;97924.31;4136501;28;20750;-49
2023/04/25 03:10:59;;;;;;;7.20;6.10;;;;;;;7.67;100.00;97922.66;4145416;28;20685;-50
2023/04/25 03:13:01;;;;;;;7.18;6.57;;;;;;;7.60;100.00;97919.25;4122876;28;20310;-50
2023/04/25 03:15:03;;;;;;;7.53;6.93;;;;;;;7.68;100.00;97916.16;4142497;28;20229;-49
2023/04/25 03:17:05;;;;;;;7.78;7.18;;;;;;;7.69;100.00;97915.06;4142186;28;20337;-50
2023/04/25 03:19:07;;;;;;;6.05;5.55;;;;;;;7.67;100.00;97922.66;4126975;28;20309;-51
2023/04/25 03:21:09;;;;;;;9.52;6.20;;;;;;;7.58;100.00;97924.13;4141380;28;20209;-49
2023/04/25 03:23:10;;;;;;;9.52;7.97;;;;;;;7.38;100.00;97919.16;4126792;28;20297;-49
2023/04/25 03:25:12;;;;;;;8.30;7.60;;;;;;;7.39;100.00;97914.53;4140651;28;20248;-49
2023/04/25 03:27:14;;;;;;;6.72;6.22;;;;;;;7.38;100.00;97918.31;4123214;28;20657;-49
2023/04/25 03:29:15;;;;;;;7.70;6.72;;;;;;;7.31;100.00;97914.94;4125221;28;20325;-49
2023/04/25 03:31:17;;;;;;;8.13;7.43;;;;;;;7.35;100.00;97927.00;4119472;28;20266;-50
2023/04/25 03:33:19;;;;;;;7.68;7.07;;;;;;;7.43;100.00;97921.16;4142603;28;21196;-49
2023/04/25 03:35:22;;;;;;;8.15;7.55;;;;;;;7.39;100.00;97920.81;4151946;28;20227;-49
2023/04/25 03:37:24;;;;;;;8.27;7.47;;;;;;;7.29;100.00;97922.53;4139436;28;20734;-50
2023/04/25 03:39:25;;;;;;;7.97;7.38;;;;;;;7.41;100.00;97923.28;4137731;28;20225;-49
2023/04/25 03:41:28;;;;;;;7.22;6.72;;;;;;;7.39;100.00;97915.38;4142866;28;20205;-49
2023/04/25 03:43:30;;;;;;;7.93;7.43;;;;;;;7.26;100.00;97914.81;4126897;28;20222;-49
2023/04/25 03:45:31;;;;;;;7.65;7.05;;;;;;;7.31;100.00;97913.03;4138840;28;20603;-49
2023/04/25 03:47:33;;;;;;;7.13;6.63;;;;;;;7.40;100.00;97910.72;4139894;28;20213;-49
2023/04/25 03:49:36;;;;;;;7.50;6.93;;;;;;;7.38;100.00;97913.72;4126563;28;20866;-49
2023/04/25 03:51:38;;;;;;;7.55;7.00;;;;;;;7.41;100.00;97913.22;4125233;28;20359;-49
2023/04/25 03:53:40;;;;;;;7.35;6.80;;;;;;;7.43;100.00;97915.69;4122726;28;20309;-50
2023/04/25 03:55:41;;;;;;;8.27;7.60;;;;;;;7.49;100.00;97920.16;4154548;28;20208;-49
2023/04/25 03:57:44;;;;;;;8.93;8.27;;;;;;;7.56;100.00;97915.38;4142132;28;20218;-50
2023/04/25 03:59:46;;;;;;;8.23;7.72;;;;;;;7.51;100.00;97920.75;4139728;28;20225;-50
2023/04/25 04:01:47;;;;;;;7.88;7.28;;;;;;;7.54;100.00;97922.97;4140817;28;20280;-49
2023/04/25 04:03:52;;;;;;;9.05;8.32;;;;;;;7.51;100.00;97912.56;4128463;28;20210;-49
2023/04/25 04:05:53;;;;;;;9.90;9.00;;;;;;;7.45;100.00;97913.53;4152824;28;20215;-50
2023/04/25 04:07:55;;;;;;;8.25;7.60;;;;;;;7.32;100.00;97911.13;4140222;28;20213;-49
2023/04/25 04:09:57;;;;;;;8.60;7.90;;;;;;;7.46;100.00;97915.19;4155737;28;20682;-49
2023/04/25 04:12:02;;;;;;;10.18;8.43;;;;;;;7.24;100.00;97911.53;4121153;28;20292;-50
2023/04/25 04:14:05;;;;;;;7.95;7.35;;;;;;;7.19;100.00;97914.16;4137444;28;20205;-49
2023/04/25 04:16:07;;;;;;;9.55;8.85;;;;;;;7.09;100.00;97913.97;4136390;28;20673;-49
2023/04/25 04:18:09;;;;;;;9.00;8.38;;;;;;;6.99;100.00;97909.16;4137268;28;20948;-49
2023/04/25 04:20:11;;;;;;;9.07;8.38;;;;;;;7.02;100.00;97900.50;4136448;28;20225;-49
2023/04/25 04:22:13;;;;;;;9.27;8.57;;;;;;;7.05;100.00;97901.91;4136387;28;20241;-49
2023/04/25 04:24:16;;;;;;;10.88;10.07;;;;;;;6.95;100.00;97901.72;4141313;28;20205;-49
2023/04/25 04:26:18;;;;;;;9.82;8.70;;;;;;;7.02;100.00;97903.22;4121921;28;20210;-49
2023/04/25 04:28:20;;;;;;;11.77;10.77;;;;;;;7.05;100.00;97907.34;4137465;28;20232;-49
2023/04/25 04:30:24;;;;;;;9.73;8.88;;;;;;;7.14;100.00;97905.88;4135860;28;20237;-50
2023/04/25 04:32:27;;;;;;;12.10;11.13;;;;;;;7.12;100.00;97908.03;4135956;28;20268;-49
2023/04/25 04:34:29;;;;;;;12.13;10.98;;;;;;;7.11;100.00;97911.81;4135798;28;20385;-50
2023/04/25 04:36:31;;;;;;;10.80;9.95;;;;;;;7.19;100.00;97925.03;4135639;28;20317;-49
2023/04/25 04:38:33;;;;;;;9.90;9.10;;;;;;;7.27;100.00;97930.06;4136333;28;20237;-48
2023/04/25 04:40:35;;;;;;;10.77;9.88;;;;;;;7.30;100.00;97932.31;4137978;28;20240;-49
2023/04/25 04:42:38;;;;;;;12.98;10.10;;;;;;;7.48;100.00;97934.84;4121861;28;20651;-49
2023/04/25 04:44:39;;;;;;;10.45;9.65;;;;;;;7.43;100.00;97921.16;4133731;28;20213;-49
2023/04/25 04:46:41;;;;;;;10.50;9.70;;;;;;;7.48;100.00;97923.97;4136723;28;20294;-49
2023/04/25 04:48:44;;;;;;;10.80;9.93;;;;;;;7.43;100.00;97913.78;4135156;28;20325;-49
2023/04/25 04:50:46;;;;;;;11.23;10.35;;;;;;;7.44;100.00;97922.78;4135637;28;20267;-48
2023/04/25 04:52:47;;;;;;;10.40;9.60;;;;;;;7.45;100.00;97927.16;4146857;28;20224;-48
2023/04/25 04:54:49;;;;;;;11.32;10.35;;;;;;;7.48;100.00;97935.66;4137463;28;20212;-49
2023/04/25 04:56:52;;;;;;;11.27;10.38;;;;;;;7.52;100.00;97942.28;4130699;28;20223;-49
2023/04/25 04:58:54;;;;;;;17.83;16.23;;;;;;;7.57;100.00;97949.72;4136815;28;20236;-48
2023/04/25 05:00:56;;;;;;;18.48;16.98;;;;;;;7.60;100.00;97941.03;4117371;28;20210;-49
2023/04/25 05:02:59;;;;;;;17.15;15.80;;;;;;;7.60;100.00;97952.75;4136076;28;20217;-48
2023/04/25 05:05:01;;;;;;;17.55;16.13;;;;;;;7.57;100.00;97955.16;4136658;28;20245;-49
2023/04/25 05:07:03;;;;;;;20.23;18.63;;;;;;;7.63;100.00;97949.53;4137970;28;20244;-49
2023/04/25 05:09:05;;;;;;;19.23;17.63;;;;;;;7.61;100.00;97956.31;4135883;28;20312;-49
2023/04/25 05:11:14;;;;;;;16.58;15.38;;;;;;;7.60;100.00;97954.66;4128272;28;20213;-49
2023/04/25 05:13:16;;;;;;;21.63;20.10;;;;;;;7.60;100.00;97954.66;4123076;28;20297;-50
2023/04/25 05:15:18;;;;;;;15.50;14.50;;;;;;;7.60;100.00;97951.94;4125201;28;20213;-48
2023/04/25 05:17:23;;;;;;;13.85;12.85;;;;;;;7.66;100.00;97959.13;4136793;28;20695;-49
2023/04/25 05:19:32;;;;;;;12.55;11.52;;;;;;;7.64;100.00;97959.38;4151441;28;20268;-48
2023/04/25 05:21:35;;;;;;;11.85;10.90;;;;;;;7.65;100.00;97962.91;4140142;28;20213;-48
2023/04/25 05:23:37;;;;;;;12.07;11.05;;;;;;;7.65;100.00;97962.91;4121923;28;20220;-49
2023/04/25 05:25:39;;;;;;;11.98;10.75;;;;;;;7.76;100.00;97964.75;4137178;28;20287;-48
2023/04/25 05:27:40;;;;;;;13.70;12.60;;;;;;;7.80;100.00;97971.34;4135497;28;20288;-49
2023/04/25 05:29:42;;;;;;;12.48;11.48;;;;;;;7.69;100.00;97974.97;4142243;28;20263;-49
2023/04/25 05:31:44;;;;;;;12.25;10.55;;;;;;;7.81;100.00;97973.84;4122959;28;20202;-48
2023/04/25 05:33:47;;;;;;;13.23;12.02;;;;;;;7.76;100.00;97973.72;4139343;28;20630;-49
2023/04/25 05:35:50;;;;;;;13.45;12.50;;;;;;;7.76;100.00;97970.19;4140905;28;20679;-48
2023/04/25 05:38:00;;;;;;;14.60;13.27;;;;;;;7.73;100.00;97970.69;4119260;28;20293;-48
2023/04/25 05:40:06;;;;;;;13.45;12.45;;;;;;;7.70;100.00;97976.63;4150679;28;20227;-48
2023/04/25 05:42:08;;;;;;;14.30;13.18;;;;;;;7.67;100.00;97971.66;4136958;28;20214;-49
2023/04/25 05:44:10;;;;;;;15.68;14.48;;;;;;;7.74;100.00;97975.03;4137194;28;20224;-48
2023/04/25 05:46:20;;;;;;;14.85;13.75;;;;;;;7.73;100.00;97981.56;4122454;28;20214;-49
2023/04/25 05:48:22;;;;;;;15.55;14.13;;;;;;;7.80;100.00;97984.97;4141464;28;20212;-49
2023/04/25 05:50:27;;;;;;;14.98;13.73;;;;;;;7.81;100.00;97982.00;4152026;28;20234;-48
2023/04/25 05:52:29;;;;;;;15.00;13.73;;;;;;;7.91;100.00;97978.63;4134236;28;20217;-48
2023/04/25 05:54:31;;;;;;;16.00;14.80;;;;;;;7.83;100.00;97981.75;4136283;28;20224;-48
2023/04/25 05:56:34;;;;;;;16.13;14.93;;;;;;;7.90;100.00;97983.25;4131214;28;20839;-48
2023/04/25 05:58:36;;;;;;;16.83;15.30;;;;;;;7.77;100.00;97983.59;4119213;28;20293;-48
2023/04/25 06:00:46;;;;;;;16.58;15.13;;;;;;;7.79;100.00;97984.16;4134881;28;20209;-49
2023/04/25 06:02:48;;;;;;;14.48;13.38;;;;;;;7.74;100.00;97989.50;4137118;28;20683;-49
2023/04/25 06:04:50;;;;;;;15.20;13.90;;;;;;;7.79;100.00;97980.59;4138533;28;20357;-48
2023/04/25 06:06:56;;;;;;;15.18;13.73;;;;;;;7.73;100.00;97982.41;4127146;28;20306;-50
2023/04/25 06:09:02;;;;;;;14.02;12.98;;;;;;;7.67;100.00;97982.53;4152155;28;20258;-48
2023/04/25 06:11:04;;;;;;;14.55;13.45;;;;;;;7.77;100.00;97988.19;4134535;28;20296;-48
2023/04/25 06:13:07;;;;;;;13.93;12.90;;;;;;;7.71;100.00;97994.59;4140071;28;20684;-48
2023/04/25 06:15:09;;;;;;;12.32;11.23;;;;;;;7.75;100.00;97998.50;4121369;28;20213;-48
2023/04/25 06:17:28;;;;;;;12.38;11.38;;;;;;;7.75;100.00;97987.63;4139127;28;20245;-48
2023/04/25 06:19:30;;;;;;;13.07;12.07;;;;;;;7.65;100.00;97999.16;4125579;28;20292;-47
2023/04/25 06:21:32;;;;;;;14.02;12.88;;;;;;;7.67;100.00;97997.00;4124302;28;20763;-49
2023/04/25 06:23:33;;;;;;;13.18;12.07;;;;;;;7.68;100.00;98000.56;4134511;28;20239;-49
2023/04/25 06:25:49;;;;;;;12.30;11.20;;;;;;;7.72;100.00;97998.97;4119746;28;20210;-49
2023/04/25 06:27:51;;;;;;;14.35;12.93;;;;;;;7.71;100.00;97997.34;4136429;28;20214;-49
2023/04/25 06:29:53;;;;;;;15.32;14.10;;;;;;;7.66;100.00;97994.50;4136423;28;20303;-48
2023/04/25 06:31:55;;;;;;;15.80;14.27;;;;;;;7.69;100.00;97996.75;4142765;28;20241;-48
2023/04/25 06:33:57;;;;;;;15.65;14.15;;;;;;;7.71;100.00;98000.91;4134059;28;20217;-47
2023/04/25 06:36:13;;;;;;;13.82;12.75;;;;;;;7.79;100.00;98002.38;4157880;28;20607;-48
2023/04/25 06:38:15;;;;;;;14.18;12.90;;;;;;;7.85;100.00;98001.41;4138294;28;20210;-49
2023/04/25 06:40:17;;;;;;;13.93;12.82;;;;;;;7.87;100.00;98004.69;4139617;28;20229;-48
2023/04/25 06:42:19;;;;;;;14.02;12.88;;;;;;;7.93;100.00;98004.56;4128630;28;20210;-48
2023/04/25 06:44:23;;;;;;;14.50;13.40;;;;;;;7.89;100.00;98008.03;4128534;28;20747;-50
2023/04/25 06:46:25;;;;;;;15.40;14.20;;;;;;;7.91;100.00;98011.31;4135447;28;20224;-48
2023/04/25 06:48:35;;;;;;;14.25;13.23;;;;;;;7.94;100.00;98006.19;4140186;28;20218;-48
2023/04/25 06:50:37;;;;;;;16.85;15.38;;;;;;;8.01;100.00;98006.06;4153864;28;20312;-48
2023/04/25 06:52:39;;;;;;;15.05;13.75;;;;;;;7.94;100.00;98013.53;4146442;28;20668;-49
2023/04/25 06:54:41;;;;;;;17.08;15.77;;;;;;;7.96;100.00;98011.41;4152562;28;20227;-48
2023/04/25 06:56:43;;;;;;;14.25;12.98;;;;;;;8.08;100.00;98023.06;4137802;28;20245;-48
2023/04/25 06:58:54;;;;;;;15.38;14.07;;;;;;;8.06;100.00;98020.59;4139301;28;20937;-48
2023/04/25 07:00:56;;;;;;;16.02;14.82;;;;;;;8.02;100.00;98013.97;4139111;28;20293;-48
2023/04/25 07:03:00;;;;;;;16.60;15.23;;;;;;;8.12;100.00;98024.22;4127423;28;20221;-48
2023/04/25 07:05:04;;;;;;;16.63;13.80;;;;;;;8.15;100.00;98021.00;4123427;28;20281;-48
2023/04/25 07:07:05;;;;;;;16.27;15.07;;;;;;;8.12;100.00;98025.06;4137226;28;20206;-48
2023/04/25 07:09:11;;;;;;;15.00;13.80;;;;;;;8.21;100.00;98022.78;4122552;28;20284;-48
2023/04/25 07:11:18;;;;;;;17.48;16.17;;;;;;;8.32;100.00;98024.59;4138792;28;20690;-48
2023/04/25 07:13:20;;;;;;;14.68;13.48;;;;;;;8.38;100.00;98034.50;4146923;28;20575;-49
2023/04/25 07:15:25;;;;;;;14.60;13.13;;;;;;;8.33;100.00;98031.69;4154809;28;20679;-48
2023/04/25 07:17:26;;;;;;;14.85;13.68;;;;;;;8.37;100.00;98033.69;4122688;28;20241;-48
2023/04/25 07:19:40;;;;;;;16.60;15.30;;;;;;;8.30;100.00;98032.19;4151248;28;20233;-49
2023/04/25 07:21:42;;;;;;;13.50;12.40;;;;;;;8.32;100.00;98030.88;4134939;28;20256;-47
2023/04/25 07:23:44;;;;;;;13.90;12.65;;;;;;;8.27;100.00;98038.13;4152249;28;20540;-48
2023/04/25 07:25:46;;;;;;;17.02;15.43;;;;;;;8.38;100.00;98035.34;4138957;28;20634;-48
2023/04/25 07:28:06;;;;;;;15.00;13.80;;;;;;;8.50;100.00;98032.53;4143558;28;20213;-50
2023/04/25 07:30:10;;;;;;;14.75;13.65;;;;;;;8.58;100.00;98034.81;4142334;28;20675;-48
2023/04/25 07:32:13;;;;;;;14.88;13.70;;;;;;;8.76;100.00;98040.03;4138112;28;20225;-48
2023/04/25 07:34:24;;;;;;;15.10;13.70;;;;;;;8.82;100.00;98042.56;4134944;28;20594;-48
2023/04/25 07:36:27;;;;;;;14.23;12.18;;;;;;;9.02;100.00;98047.50;4138658;28;20695;-49
2023/04/25 07:38:28;;;;;;;12.52;11.55;;;;;;;8.93;100.00;98040.81;4135149;28;20268;-48
2023/04/25 07:40:30;;;;;;;11.95;11.05;;;;;;;9.08;100.00;98041.03;4121123;28;20213;-48
2023/04/25 07:42:32;;;;;;;13.27;12.10;;;;;;;9.32;100.00;98039.72;4148751;28;20693;-48
2023/04/25 07:44:38;;;;;;;13.15;12.15;;;;;;;9.40;100.00;98053.75;4135241;28;20327;-48
2023/04/25 07:46:40;;;;;;;13.10;11.93;;;;;;;9.45;100.00;98047.53;4134029;28;20201;-49
2023/04/25 07:48:41;;;;;;;12.95;11.95;;;;;;;9.49;100.00;98048.66;4136651;28;20235;-48
2023/04/25 07:50:43;;;;;;;11.63;10.82;;;;;;;9.61;100.00;98052.09;4136138;28;20230;-48
2023/04/25 07:52:45;;;;;;;11.52;10.63;;;;;;;9.59;100.00;98049.63;4153214;28;20212;-48
2023/04/25 07:54:48;;;;;;;10.55;9.75;;;;;;;9.64;100.00;98054.31;4119656;28;20221;-48
2023/04/25 07:56:50;;;;;;;12.05;11.15;;;;;;;9.76;100.00;98061.28;4150997;28;20209;-49
2023/04/25 07:58:54;;;;;;;11.75;10.82;;;;;;;9.65;100.00;98075.06;4134004;28;20236;-50
2023/04/25 08:00:56;;;;;;;11.98;10.30;;;;;;;9.68;100.00;98078.13;4136884;28;20260;-49
2023/04/25 08:02:57;;;;;;;9.70;8.90;;;;;;;9.52;100.00;98080.91;4134543;28;20213;-49
2023/04/25 08:04:59;;;;;;;9.32;8.52;;;;;;;8.89;100.00;98086.06;4150880;28;20293;-50
2023/04/25 08:07:01;;;;;;;9.70;8.80;;;;;;;8.77;100.00;98090.78;4120380;28;20210;-49
2023/04/25 08:09:04;;;;;;;10.07;8.05;;;;;;;8.76;100.00;98091.84;4136159;28;20225;-48
2023/04/25 08:11:05;;;;;;;8.98;8.27;;;;;;;8.63;100.00;98103.09;4124228;28;20312;-49
2023/04/25 08:13:07;;;;;;;12.40;7.82;;;;;;;8.45;100.00;98101.44;4134551;28;20330;-49
2023/04/25 08:15:09;;;;;;;20.42;7.72;;;;;;;8.10;100.00;98110.84;4136278;28;20316;-49
2023/04/25 08:17:11;;;;;;;10.20;8.60;;;;;;;8.12;100.00;98114.13;4141758;28;20221;-49
2023/04/25 08:19:13;;;;;;;9.35;8.45;;;;;;;8.00;100.00;98113.34;4142505;28;20287;-49
2023/04/25 08:21:15;;;;;;;9.75;8.93;;;;;;;8.15;100.00;98121.84;4135602;28;20245;-49
2023/04/25 08:23:16;;;;;;;9.98;8.60;;;;;;;8.10;100.00;98127.19;4139326;28;20289;-48
2023/04/25 08:25:18;;;;;;;10.65;9.20;;;;;;;8.07;100.00;98130.38;4126391;28;20206;-49
2023/04/25 08:27:20;;;;;;;11.50;8.15;;;;;;;8.01;100.00;98132.19;4136148;28;20653;-50
2023/04/25 08:29:24;;;;;;;10.02;9.13;;;;;;;7.99;100.00;98138.94;4142480;28;20237;-50
2023/04/25 08:31:29;;;;;;;9.43;8.25;;;;;;;8.02;100.00;98136.56;4124234;28;20276;-49
2023/04/25 08:33:31;;;;;;;10.98;8.18;;;;;;;8.03;100.00;98140.13;4150636;28;20213;-49
2023/04/25 08:35:33;;;;;;;11.13;8.63;;;;;;;8.12;100.00;98146.84;4135527;28;20244;-50
2023/04/25 08:37:36;;;;;;;10.43;7.65;;;;;;;7.99;100.00;98155.28;4150475;28;20204;-50
2023/04/25 08:39:39;;;;;;;10.15;9.35;;;;;;;8.04;100.00;98144.50;4117875;28;20831;-49
2023/04/25 08:41:41;;;;;;;14.48;9.30;;;;;;;8.02;100.00;98155.63;4120446;28;20656;-49
2023/04/25 08:43:44;;;;;;;9.32;8.07;;;;;;;8.09;100.00;98155.50;4136517;28;20209;-49
2023/04/25 08:45:46;;;;;;;9.43;8.55;;;;;;;7.94;100.00;98168.81;4136376;28;20209;-49
2023/04/25 08:47:51;;;;;;;10.85;8.70;;;;;;;7.82;100.00;98168.03;4134831;28;20583;-49
2023/04/25 08:49:54;;;;;;;10.40;9.07;;;;;;;7.86;100.00;98170.03;4135636;28;20292;-49
2023/04/25 08:52:00;;;;;;;11.35;9.45;;;;;;;7.91;100.00;98175.59;4152161;28;20271;-50
2023/04/25 08:54:13;;;;;;;10.57;7.85;;;;;;;7.96;100.00;98172.13;4137935;28;20221;-49
2023/04/25 08:56:17;;;;;;;10.30;7.72;;;;;;;7.94;100.00;98180.53;4135004;28;20205;-49
2023/04/25 08:58:20;;;;;;;12.55;8.57;;;;;;;8.00;100.00;98185.03;4136536;28;20234;-49
2023/04/25 09:00:22;;;;;;;16.23;8.38;;;;;;;8.09;100.00;98180.84;4150606;28;20240;-50
2023/04/25 09:02:24;;;;;;;11.30;10.30;;;;;;;8.02;100.00;98188.34;4139428;28;20209;-48
2023/04/25 09:04:26;;;;;;;11.00;8.18;;;;;;;8.11;100.00;98186.91;4141195;28;20845;-49
2023/04/25 09:06:30;;;;;;;10.30;8.50;;;;;;;8.15;100.00;98187.25;4142038;28;20273;-50
2023/04/25 09:08:32;;;;;;;9.23;8.48;;;;;;;8.22;100.00;98196.94;4132601;28;20213;-49
2023/04/25 09:10:34;;;;;;;9.20;8.35;;;;;;;8.23;100.00;98205.97;4149119;28;20224;-49
2023/04/25 09:12:36;;;;;;;8.35;7.63;;;;;;;8.24;100.00;98204.88;4133597;28;20219;-49
2023/04/25 09:14:38;;;;;;;9.05;8.15;;;;;;;8.34;100.00;98197.72;4136259;28;20687;-49
2023/04/25 09:16:55;;;;;;;9.30;7.70;;;;;;;8.24;100.00;98215.78;4135044;28;20210;-49
2023/04/25 09:18:57;;;;;;;8.57;7.80;;;;;;;8.06;100.00;98210.47;4141411;28;20327;-48
2023/04/25 09:21:11;;;;;;;9.00;7.22;;;;;;;8.27;100.00;98223.47;4137336;28;20231;-50
2023/04/25 09:23:15;;;;;;;10.35;8.63;;;;;;;8.27;100.00;98218.00;4137887;28;20247;-49
2023/04/25 09:25:17;;;;;;;14.30;7.40;;;;;;;8.28;100.00;98227.88;4119902;28;20233;-49
2023/04/25 09:27:22;;;;;;;11.55;8.35;;;;;;;8.43;100.00;98228.16;4135305;28;20216;-49
2023/04/25 09:29:32;;;;;;;8.95;8.02;;;;;;;8.28;100.00;98230.59;4132190;28;20651;-49
2023/04/25 09:31:34;;;;;;;9.48;8.60;;;;;;;8.36;100.00;98235.66;4135162;28;20376;-49
2023/04/25 09:33:36;;;;;;;11.00;8.90;;;;;;;8.48;100.00;98231.00;4118651;28;20218;-49